EZY748A EGSS-EGPH
Flight info
| Callsign | EZY748A |
|---|---|
| Flight time | 1h 0m |
| Altitude | 32000 |
| Route | UTAVA Q75 BUZAD T420 TNT UN57 POL UN601 RIBEL DCT INPIP |
| Aircraft | A320/M-SDE2E3FGHIJ1RWXYZ/LB1 |
Departure
| Time | 2026-05-06 09:41 |
|---|---|
| Airport | London Stansted Airport (EGSS) |
Arrival
| Time | 2026-05-06 10:41 |
|---|---|
| Airport | Edinburgh Airport (EGPH) |
| Time | Latitude | Longitude | Altitude | Speed | Heading |
|---|---|---|---|---|---|
| 2026-05-06 08:57 | 51.89160 | 0.25733 | 357 ft | 0 kts | 223° |
| 2026-05-06 09:24 | 51.89171 | 0.25751 | 360 ft | 2 kts | 223° |
| 2026-05-06 09:24 | 51.89184 | 0.25770 | 365 ft | 2 kts | 223° |
| 2026-05-06 09:25 | 51.89196 | 0.25788 | 360 ft | 3 kts | 232° |
| 2026-05-06 09:25 | 51.89204 | 0.25813 | 364 ft | 3 kts | 269° |
| 2026-05-06 09:25 | 51.89201 | 0.25841 | 361 ft | 3 kts | 279° |
| 2026-05-06 09:25 | 51.89195 | 0.25867 | 362 ft | 0 kts | 316° |
| 2026-05-06 09:32 | 51.89203 | 0.25854 | 360 ft | 1 kts | 315° |
| 2026-05-06 09:32 | 51.89220 | 0.25827 | 360 ft | 8 kts | 314° |
| 2026-05-06 09:32 | 51.89257 | 0.25716 | 365 ft | 14 kts | 306° |
| 2026-05-06 09:32 | 51.89330 | 0.25586 | 365 ft | 17 kts | 313° |
| 2026-05-06 09:33 | 51.89419 | 0.25458 | 362 ft | 17 kts | 273° |
| 2026-05-06 09:33 | 51.89344 | 0.25301 | 357 ft | 20 kts | 222° |
| 2026-05-06 09:33 | 51.89245 | 0.25116 | 363 ft | 23 kts | 248° |
| 2026-05-06 09:33 | 51.89132 | 0.24912 | 359 ft | 21 kts | 223° |
| 2026-05-06 09:34 | 51.89014 | 0.24736 | 359 ft | 26 kts | 225° |
| 2026-05-06 09:34 | 51.88905 | 0.24571 | 357 ft | 17 kts | 223° |
| 2026-05-06 09:34 | 51.88806 | 0.24424 | 357 ft | 22 kts | 223° |
| 2026-05-06 09:34 | 51.88684 | 0.24240 | 355 ft | 26 kts | 223° |
| 2026-05-06 09:35 | 51.88555 | 0.24045 | 358 ft | 18 kts | 220° |
| 2026-05-06 09:35 | 51.88452 | 0.23891 | 354 ft | 23 kts | 224° |
| 2026-05-06 09:35 | 51.88334 | 0.23715 | 353 ft | 20 kts | 223° |
| 2026-05-06 09:35 | 51.88222 | 0.23547 | 350 ft | 19 kts | 223° |
| 2026-05-06 09:36 | 51.88115 | 0.23386 | 352 ft | 13 kts | 221° |
| 2026-05-06 09:36 | 51.88052 | 0.23295 | 348 ft | 14 kts | 221° |
| 2026-05-06 09:36 | 51.87968 | 0.23169 | 349 ft | 19 kts | 221° |
| 2026-05-06 09:36 | 51.87861 | 0.23006 | 350 ft | 24 kts | 223° |
| 2026-05-06 09:37 | 51.87732 | 0.22810 | 350 ft | 25 kts | 221° |
| 2026-05-06 09:37 | 51.87610 | 0.22625 | 347 ft | 23 kts | 222° |
| 2026-05-06 09:37 | 51.87516 | 0.22467 | 338 ft | 15 kts | 253° |
| 2026-05-06 09:37 | 51.87540 | 0.22389 | 338 ft | 9 kts | 314° |
| 2026-05-06 09:38 | 51.87554 | 0.22366 | 339 ft | 2 kts | 314° |
| 2026-05-06 09:38 | 51.87572 | 0.22336 | 336 ft | 6 kts | 314° |
| 2026-05-06 09:38 | 51.87582 | 0.22319 | 338 ft | 0 kts | 311° |
| 2026-05-06 09:39 | 51.87584 | 0.22315 | 338 ft | 2 kts | 311° |
| 2026-05-06 09:39 | 51.87620 | 0.22274 | 337 ft | 9 kts | 336° |
| 2026-05-06 09:39 | 51.87696 | 0.22281 | 338 ft | 12 kts | 27° |
| 2026-05-06 09:40 | 51.87711 | 0.22300 | 334 ft | 0 kts | 41° |
| 2026-05-06 09:40 | 51.87811 | 0.22444 | 352 ft | 57 kts | 40° |
| 2026-05-06 09:40 | 51.89005 | 0.24254 | 697 ft | 149 kts | 41° |
| 2026-05-06 09:41 | 51.89739 | 0.25496 | 1412 ft | 156 kts | 44° |
| 2026-05-06 09:41 | 51.90498 | 0.26712 | 2165 ft | 152 kts | 39° |
| 2026-05-06 09:41 | 51.91281 | 0.27861 | 2849 ft | 152 kts | 39° |
| 2026-05-06 09:41 | 51.92062 | 0.28999 | 3519 ft | 151 kts | 39° |
| 2026-05-06 09:42 | 51.92874 | 0.30187 | 3957 ft | 166 kts | 39° |
| 2026-05-06 09:42 | 51.93851 | 0.31465 | 4104 ft | 193 kts | 26° |
| 2026-05-06 09:42 | 51.95170 | 0.32021 | 4637 ft | 199 kts | 1° |
| 2026-05-06 09:42 | 51.96487 | 0.31465 | 5060 ft | 201 kts | 324° |
| 2026-05-06 09:43 | 51.97204 | 0.29511 | 5700 ft | 212 kts | 281° |
| 2026-05-06 09:43 | 51.97131 | 0.27090 | 6344 ft | 219 kts | 267° |
| 2026-05-06 09:43 | 51.97109 | 0.24582 | 6870 ft | 230 kts | 280° |
| 2026-05-06 09:43 | 51.97320 | 0.21832 | 6980 ft | 262 kts | 281° |
| 2026-05-06 09:44 | 51.97609 | 0.18837 | 7011 ft | 272 kts | 282° |
| 2026-05-06 09:44 | 51.97920 | 0.15813 | 7147 ft | 270 kts | 283° |
| 2026-05-06 09:44 | 51.98048 | 0.12750 | 7869 ft | 276 kts | 268° |
| 2026-05-06 09:44 | 51.97883 | 0.09624 | 8787 ft | 279 kts | 268° |
| 2026-05-06 09:45 | 51.97719 | 0.06475 | 9691 ft | 282 kts | 267° |
| 2026-05-06 09:45 | 51.97551 | 0.03278 | 10420 ft | 290 kts | 267° |
| 2026-05-06 09:45 | 51.97374 | -0.00081 | 10872 ft | 307 kts | 267° |
| 2026-05-06 09:45 | 51.97183 | -0.03617 | 11345 ft | 322 kts | 267° |
| 2026-05-06 09:46 | 51.96981 | -0.07271 | 11849 ft | 327 kts | 266° |
| 2026-05-06 09:46 | 51.96774 | -0.10952 | 11974 ft | 327 kts | 266° |
| 2026-05-06 09:46 | 51.96566 | -0.14624 | 11997 ft | 328 kts | 266° |
| 2026-05-06 09:46 | 51.96365 | -0.18168 | 11999 ft | 327 kts | 265° |
| 2026-05-06 09:47 | 51.96153 | -0.21839 | 11999 ft | 327 kts | 266° |
| 2026-05-06 09:47 | 51.95944 | -0.25505 | 12175 ft | 326 kts | 266° |
| 2026-05-06 09:47 | 51.95733 | -0.29207 | 12886 ft | 331 kts | 266° |
| 2026-05-06 09:47 | 51.95520 | -0.32938 | 13697 ft | 334 kts | 265° |
| 2026-05-06 09:48 | 51.95302 | -0.36699 | 14382 ft | 337 kts | 265° |
| 2026-05-06 09:48 | 51.95081 | -0.40491 | 15081 ft | 340 kts | 265° |
| 2026-05-06 09:48 | 51.94856 | -0.44322 | 15790 ft | 342 kts | 265° |
| 2026-05-06 09:48 | 51.94725 | -0.48167 | 16483 ft | 343 kts | 274° |
| 2026-05-06 09:49 | 51.95154 | -0.51970 | 17168 ft | 346 kts | 288° |
| 2026-05-06 09:49 | 51.96202 | -0.55491 | 17849 ft | 350 kts | 303° |
| 2026-05-06 09:49 | 51.97806 | -0.58483 | 18473 ft | 355 kts | 318° |
| 2026-05-06 09:49 | 51.99830 | -0.60731 | 19017 ft | 360 kts | 327° |
| 2026-05-06 09:50 | 52.02022 | -0.62849 | 19548 ft | 364 kts | 327° |
| 2026-05-06 09:50 | 52.04203 | -0.64859 | 20088 ft | 368 kts | 330° |
| 2026-05-06 09:50 | 52.06496 | -0.66753 | 20631 ft | 371 kts | 332° |
| 2026-05-06 09:50 | 52.08839 | -0.68570 | 21170 ft | 375 kts | 333° |
| 2026-05-06 09:51 | 52.11212 | -0.70367 | 21696 ft | 378 kts | 333° |
| 2026-05-06 09:51 | 52.13607 | -0.72188 | 22220 ft | 381 kts | 332° |
| 2026-05-06 09:51 | 52.16012 | -0.74049 | 22728 ft | 384 kts | 332° |
| 2026-05-06 09:51 | 52.18428 | -0.75949 | 23227 ft | 387 kts | 332° |
| 2026-05-06 09:52 | 52.20859 | -0.77887 | 23704 ft | 390 kts | 331° |
| 2026-05-06 09:52 | 52.23303 | -0.79848 | 24119 ft | 393 kts | 331° |
| 2026-05-06 09:52 | 52.25765 | -0.81828 | 24538 ft | 395 kts | 331° |
| 2026-05-06 09:52 | 52.28240 | -0.83820 | 24956 ft | 398 kts | 332° |
| 2026-05-06 09:53 | 52.30729 | -0.85815 | 25364 ft | 400 kts | 332° |
| 2026-05-06 09:53 | 52.33244 | -0.87824 | 25766 ft | 403 kts | 332° |
| 2026-05-06 09:53 | 52.35764 | -0.89839 | 26171 ft | 405 kts | 332° |
| 2026-05-06 09:53 | 52.38300 | -0.91871 | 26569 ft | 407 kts | 332° |
| 2026-05-06 09:54 | 52.40850 | -0.93920 | 26975 ft | 409 kts | 332° |
| 2026-05-06 09:54 | 52.43417 | -0.95986 | 27368 ft | 411 kts | 332° |
| 2026-05-06 09:54 | 52.45992 | -0.98065 | 27755 ft | 414 kts | 332° |
| 2026-05-06 09:54 | 52.48577 | -1.00158 | 28132 ft | 416 kts | 332° |
| 2026-05-06 09:55 | 52.51184 | -1.02271 | 28515 ft | 418 kts | 332° |
| 2026-05-06 09:55 | 52.53801 | -1.04394 | 28887 ft | 421 kts | 332° |
| 2026-05-06 09:55 | 52.56424 | -1.06525 | 29256 ft | 423 kts | 332° |
| 2026-05-06 09:55 | 52.59072 | -1.08678 | 29628 ft | 425 kts | 332° |
| 2026-05-06 09:56 | 52.61730 | -1.10839 | 29994 ft | 427 kts | 332° |
| 2026-05-06 09:56 | 52.64401 | -1.13010 | 30288 ft | 429 kts | 332° |
| 2026-05-06 09:56 | 52.67087 | -1.15198 | 30565 ft | 431 kts | 332° |
| 2026-05-06 09:56 | 52.69779 | -1.17398 | 30844 ft | 433 kts | 331° |
| 2026-05-06 09:57 | 52.72447 | -1.19582 | 31140 ft | 435 kts | 331° |
| 2026-05-06 09:57 | 52.75166 | -1.21809 | 31416 ft | 437 kts | 331° |
| 2026-05-06 09:57 | 52.77884 | -1.24038 | 31752 ft | 437 kts | 331° |
| 2026-05-06 09:57 | 52.80616 | -1.26278 | 32009 ft | 436 kts | 331° |
| 2026-05-06 09:58 | 52.83306 | -1.28486 | 32056 ft | 424 kts | 331° |
| 2026-05-06 09:58 | 52.85894 | -1.30612 | 32060 ft | 408 kts | 331° |
| 2026-05-06 09:58 | 52.90968 | -1.34799 | 32057 ft | 407 kts | 330° |
| 2026-05-06 09:59 | 52.96028 | -1.38997 | 32054 ft | 407 kts | 330° |
| 2026-05-06 09:59 | 53.01098 | -1.43210 | 32059 ft | 407 kts | 330° |
| 2026-05-06 10:00 | 53.06156 | -1.47419 | 32060 ft | 407 kts | 330° |
| 2026-05-06 10:00 | 53.10377 | -1.50926 | 32064 ft | 407 kts | 330° |
| 2026-05-06 10:01 | 53.15427 | -1.55142 | 32074 ft | 407 kts | 330° |
| 2026-05-06 10:01 | 53.20498 | -1.59404 | 32080 ft | 407 kts | 330° |
| 2026-05-06 10:02 | 53.25556 | -1.63662 | 32076 ft | 407 kts | 330° |
| 2026-05-06 10:02 | 53.30617 | -1.67909 | 32071 ft | 407 kts | 330° |
| 2026-05-06 10:03 | 53.35682 | -1.72182 | 32080 ft | 408 kts | 330° |
| 2026-05-06 10:03 | 53.40741 | -1.76461 | 32079 ft | 408 kts | 330° |
| 2026-05-06 10:04 | 53.45798 | -1.80757 | 32075 ft | 408 kts | 330° |
| 2026-05-06 10:04 | 53.50865 | -1.85066 | 32085 ft | 408 kts | 329° |
| 2026-05-06 10:05 | 53.55915 | -1.89383 | 32085 ft | 408 kts | 329° |
| 2026-05-06 10:05 | 53.60970 | -1.93730 | 32087 ft | 408 kts | 329° |
| 2026-05-06 10:06 | 53.66023 | -1.98076 | 32084 ft | 407 kts | 329° |
| 2026-05-06 10:06 | 53.71074 | -2.02418 | 32089 ft | 407 kts | 329° |
| 2026-05-06 10:07 | 53.76123 | -2.06762 | 32085 ft | 407 kts | 329° |
| 2026-05-06 10:07 | 53.81162 | -2.11131 | 32091 ft | 407 kts | 329° |
| 2026-05-06 10:08 | 53.86199 | -2.15505 | 32090 ft | 407 kts | 329° |
| 2026-05-06 10:08 | 53.91230 | -2.19879 | 32093 ft | 406 kts | 329° |
| 2026-05-06 10:09 | 53.96260 | -2.24282 | 32087 ft | 406 kts | 329° |
| 2026-05-06 10:09 | 54.01251 | -2.28642 | 32089 ft | 407 kts | 330° |
| 2026-05-06 10:10 | 54.06525 | -2.32370 | 32087 ft | 408 kts | 334° |
| 2026-05-06 10:10 | 54.11756 | -2.35982 | 32087 ft | 408 kts | 334° |
| 2026-05-06 10:11 | 54.17013 | -2.39622 | 32088 ft | 407 kts | 334° |
| 2026-05-06 10:11 | 54.22265 | -2.43265 | 32091 ft | 407 kts | 334° |
| 2026-05-06 10:12 | 54.27512 | -2.46917 | 32084 ft | 407 kts | 334° |
| 2026-05-06 10:12 | 54.32754 | -2.50583 | 32086 ft | 407 kts | 334° |
| 2026-05-06 10:13 | 54.37987 | -2.54255 | 32081 ft | 407 kts | 334° |
| 2026-05-06 10:13 | 54.43179 | -2.57902 | 31732 ft | 395 kts | 334° |
| 2026-05-06 10:14 | 54.45708 | -2.59679 | 31480 ft | 392 kts | 334° |
| 2026-05-06 10:14 | 54.48230 | -2.61459 | 31219 ft | 390 kts | 334° |
| 2026-05-06 10:14 | 54.50731 | -2.63231 | 30969 ft | 389 kts | 334° |
| 2026-05-06 10:14 | 54.53224 | -2.65002 | 30721 ft | 387 kts | 333° |
| 2026-05-06 10:15 | 54.55711 | -2.66769 | 30475 ft | 385 kts | 333° |
| 2026-05-06 10:15 | 54.58187 | -2.68526 | 30222 ft | 384 kts | 333° |
| 2026-05-06 10:15 | 54.60649 | -2.70275 | 29952 ft | 382 kts | 333° |
| 2026-05-06 10:15 | 54.63093 | -2.72013 | 29665 ft | 380 kts | 333° |
| 2026-05-06 10:16 | 54.65533 | -2.73750 | 29379 ft | 378 kts | 333° |
| 2026-05-06 10:16 | 54.67956 | -2.75478 | 29093 ft | 376 kts | 334° |
| 2026-05-06 10:16 | 54.70342 | -2.77181 | 28812 ft | 375 kts | 334° |
| 2026-05-06 10:16 | 54.72744 | -2.78897 | 28539 ft | 373 kts | 334° |
| 2026-05-06 10:17 | 54.75126 | -2.80598 | 28263 ft | 367 kts | 333° |
| 2026-05-06 10:17 | 54.77469 | -2.82272 | 27863 ft | 362 kts | 333° |
| 2026-05-06 10:17 | 54.79786 | -2.83932 | 27463 ft | 358 kts | 333° |
| 2026-05-06 10:17 | 54.82070 | -2.85573 | 27063 ft | 354 kts | 333° |
| 2026-05-06 10:18 | 54.84336 | -2.87205 | 26656 ft | 351 kts | 333° |
| 2026-05-06 10:18 | 54.86582 | -2.88827 | 26240 ft | 348 kts | 333° |
| 2026-05-06 10:18 | 54.88806 | -2.90436 | 25814 ft | 347 kts | 333° |
| 2026-05-06 10:18 | 54.91069 | -2.92081 | 25310 ft | 355 kts | 334° |
| 2026-05-06 10:19 | 54.93356 | -2.93738 | 24810 ft | 355 kts | 334° |
| 2026-05-06 10:19 | 54.95629 | -2.95380 | 24310 ft | 354 kts | 334° |
| 2026-05-06 10:19 | 54.97906 | -2.97027 | 23820 ft | 354 kts | 334° |
| 2026-05-06 10:19 | 55.00178 | -2.98673 | 23277 ft | 354 kts | 334° |
| 2026-05-06 10:20 | 55.02447 | -3.00323 | 22773 ft | 352 kts | 334° |
| 2026-05-06 10:20 | 55.04698 | -3.01958 | 22274 ft | 350 kts | 334° |
| 2026-05-06 10:20 | 55.06938 | -3.03586 | 21796 ft | 348 kts | 334° |
| 2026-05-06 10:20 | 55.09171 | -3.05213 | 21311 ft | 347 kts | 334° |
| 2026-05-06 10:21 | 55.11396 | -3.06838 | 20826 ft | 346 kts | 334° |
| 2026-05-06 10:21 | 55.13612 | -3.08461 | 20344 ft | 345 kts | 334° |
| 2026-05-06 10:21 | 55.15826 | -3.10081 | 19819 ft | 346 kts | 334° |
| 2026-05-06 10:21 | 55.18065 | -3.11723 | 19224 ft | 349 kts | 334° |
| 2026-05-06 10:22 | 55.20284 | -3.13351 | 18830 ft | 341 kts | 334° |
| 2026-05-06 10:22 | 55.22460 | -3.14944 | 18026 ft | 338 kts | 334° |
| 2026-05-06 10:22 | 55.24619 | -3.16528 | 17188 ft | 335 kts | 334° |
| 2026-05-06 10:22 | 55.26747 | -3.18095 | 16601 ft | 326 kts | 334° |
| 2026-05-06 10:23 | 55.28784 | -3.19523 | 16463 ft | 305 kts | 340° |
| 2026-05-06 10:23 | 55.30817 | -3.20157 | 16259 ft | 293 kts | 354° |
| 2026-05-06 10:23 | 55.32843 | -3.19982 | 15772 ft | 291 kts | 1° |
| 2026-05-06 10:23 | 55.34852 | -3.19669 | 15281 ft | 288 kts | 1° |
| 2026-05-06 10:24 | 55.36829 | -3.19356 | 14821 ft | 283 kts | 1° |
| 2026-05-06 10:24 | 55.38780 | -3.19047 | 14373 ft | 280 kts | 1° |
| 2026-05-06 10:24 | 55.40734 | -3.18745 | 13935 ft | 282 kts | 1° |
| 2026-05-06 10:24 | 55.42639 | -3.18448 | 13441 ft | 278 kts | 2° |
| 2026-05-06 10:25 | 55.44560 | -3.18148 | 12980 ft | 273 kts | 2° |
| 2026-05-06 10:25 | 55.46430 | -3.17857 | 12538 ft | 271 kts | 2° |
| 2026-05-06 10:25 | 55.48314 | -3.17559 | 12098 ft | 269 kts | 2° |
| 2026-05-06 10:25 | 55.50165 | -3.17265 | 11670 ft | 267 kts | 2° |
| 2026-05-06 10:26 | 55.52024 | -3.16968 | 11239 ft | 265 kts | 3° |
| 2026-05-06 10:26 | 55.53856 | -3.16674 | 10810 ft | 264 kts | 2° |
| 2026-05-06 10:26 | 55.55677 | -3.16386 | 10377 ft | 262 kts | 3° |
| 2026-05-06 10:26 | 55.57483 | -3.16103 | 9961 ft | 260 kts | 3° |
| 2026-05-06 10:27 | 55.59274 | -3.15820 | 9504 ft | 257 kts | 3° |
| 2026-05-06 10:27 | 55.61059 | -3.15536 | 9092 ft | 258 kts | 3° |
| 2026-05-06 10:27 | 55.62848 | -3.15251 | 8719 ft | 258 kts | 4° |
| 2026-05-06 10:27 | 55.64603 | -3.14973 | 8361 ft | 258 kts | 4° |
| 2026-05-06 10:28 | 55.66400 | -3.14736 | 8075 ft | 251 kts | 357° |
| 2026-05-06 10:28 | 55.68042 | -3.15403 | 7569 ft | 245 kts | 332° |
| 2026-05-06 10:28 | 55.69338 | -3.17293 | 7090 ft | 241 kts | 307° |
| 2026-05-06 10:28 | 55.70041 | -3.19993 | 6945 ft | 246 kts | 283° |
| 2026-05-06 10:29 | 55.70043 | -3.23008 | 6895 ft | 249 kts | 258° |
| 2026-05-06 10:29 | 55.69539 | -3.25963 | 6833 ft | 250 kts | 254° |
| 2026-05-06 10:29 | 55.69010 | -3.28892 | 6762 ft | 250 kts | 254° |
| 2026-05-06 10:29 | 55.68477 | -3.31829 | 6712 ft | 250 kts | 254° |
| 2026-05-06 10:30 | 55.67943 | -3.34751 | 6632 ft | 250 kts | 254° |
| 2026-05-06 10:30 | 55.67408 | -3.37682 | 6564 ft | 250 kts | 254° |
| 2026-05-06 10:30 | 55.66872 | -3.40610 | 6481 ft | 250 kts | 253° |
| 2026-05-06 10:30 | 55.66337 | -3.43534 | 6390 ft | 249 kts | 253° |
| 2026-05-06 10:31 | 55.65801 | -3.46453 | 6316 ft | 249 kts | 253° |
| 2026-05-06 10:31 | 55.65263 | -3.49378 | 6232 ft | 250 kts | 253° |
| 2026-05-06 10:31 | 55.64818 | -3.52314 | 6117 ft | 242 kts | 266° |
| 2026-05-06 10:31 | 55.64911 | -3.55177 | 6037 ft | 228 kts | 286° |
| 2026-05-06 10:32 | 55.65513 | -3.57702 | 5898 ft | 222 kts | 305° |
| 2026-05-06 10:32 | 55.66534 | -3.59710 | 5755 ft | 220 kts | 320° |
| 2026-05-06 10:32 | 55.67675 | -3.61531 | 5637 ft | 220 kts | 319° |
| 2026-05-06 10:32 | 55.68812 | -3.63364 | 5523 ft | 228 kts | 319° |
| 2026-05-06 10:33 | 55.70020 | -3.65227 | 5390 ft | 231 kts | 321° |
| 2026-05-06 10:33 | 55.71246 | -3.67016 | 5273 ft | 231 kts | 322° |
| 2026-05-06 10:33 | 55.72505 | -3.68825 | 5158 ft | 230 kts | 322° |
| 2026-05-06 10:33 | 55.73751 | -3.70617 | 5044 ft | 230 kts | 322° |
| 2026-05-06 10:34 | 55.74996 | -3.72409 | 4912 ft | 231 kts | 322° |
| 2026-05-06 10:34 | 55.76213 | -3.74270 | 4796 ft | 231 kts | 321° |
| 2026-05-06 10:34 | 55.77576 | -3.75696 | 4679 ft | 225 kts | 342° |
| 2026-05-06 10:34 | 55.79063 | -3.76195 | 4584 ft | 213 kts | 1° |
| 2026-05-06 10:35 | 55.80469 | -3.75846 | 4458 ft | 203 kts | 19° |
| 2026-05-06 10:35 | 55.81715 | -3.74781 | 4329 ft | 196 kts | 36° |
| 2026-05-06 10:35 | 55.82692 | -3.73152 | 4215 ft | 190 kts | 53° |
| 2026-05-06 10:35 | 55.83403 | -3.71164 | 4120 ft | 191 kts | 58° |
| 2026-05-06 10:36 | 55.84097 | -3.69156 | 4050 ft | 191 kts | 58° |
| 2026-05-06 10:36 | 55.84788 | -3.67152 | 3871 ft | 189 kts | 58° |
| 2026-05-06 10:36 | 55.85475 | -3.65155 | 3636 ft | 189 kts | 58° |
| 2026-05-06 10:36 | 55.86162 | -3.63152 | 3398 ft | 191 kts | 58° |
| 2026-05-06 10:37 | 55.86844 | -3.61162 | 3137 ft | 186 kts | 59° |
| 2026-05-06 10:37 | 55.87503 | -3.59239 | 2875 ft | 177 kts | 58° |
| 2026-05-06 10:37 | 55.88130 | -3.57410 | 2640 ft | 167 kts | 58° |
| 2026-05-06 10:37 | 55.88709 | -3.55716 | 2419 ft | 155 kts | 58° |
| 2026-05-06 10:38 | 55.89254 | -3.54121 | 2215 ft | 145 kts | 58° |
| 2026-05-06 10:38 | 55.89767 | -3.52621 | 2015 ft | 142 kts | 58° |
| 2026-05-06 10:38 | 55.90278 | -3.51123 | 1814 ft | 141 kts | 58° |
| 2026-05-06 10:38 | 55.90787 | -3.49631 | 1613 ft | 140 kts | 58° |
| 2026-05-06 10:39 | 55.91294 | -3.48146 | 1418 ft | 140 kts | 58° |
| 2026-05-06 10:39 | 55.91800 | -3.46648 | 1192 ft | 141 kts | 59° |
| 2026-05-06 10:39 | 55.92310 | -3.45167 | 985 ft | 140 kts | 58° |
| 2026-05-06 10:39 | 55.92809 | -3.43685 | 758 ft | 139 kts | 59° |
| 2026-05-06 10:40 | 55.93306 | -3.42204 | 590 ft | 139 kts | 59° |
| 2026-05-06 10:40 | 55.93809 | -3.40735 | 421 ft | 138 kts | 58° |
| 2026-05-06 10:40 | 55.94310 | -3.39266 | 239 ft | 138 kts | 59° |
| 2026-05-06 10:40 | 55.94805 | -3.37813 | 122 ft | 132 kts | 59° |
| 2026-05-06 10:41 | 55.95216 | -3.36609 | 113 ft | 90 kts | 59° |
| 2026-05-06 10:41 | 55.95449 | -3.35917 | 105 ft | 40 kts | 58° |
| 2026-05-06 10:41 | 55.95549 | -3.35613 | 107 ft | 26 kts | 60° |
| 2026-05-06 10:41 | 55.95540 | -3.35483 | 108 ft | 7 kts | 145° |
| 2026-05-06 10:42 | 55.95499 | -3.35437 | 108 ft | 6 kts | 148° |
| 2026-05-06 10:42 | 55.95470 | -3.35405 | 109 ft | 5 kts | 148° |
| 2026-05-06 10:42 | 55.95418 | -3.35359 | 110 ft | 9 kts | 168° |
| 2026-05-06 10:42 | 55.95377 | -3.35408 | 111 ft | 6 kts | 234° |
| 2026-05-06 10:43 | 55.95364 | -3.35462 | 112 ft | 4 kts | 257° |
| 2026-05-06 10:43 | 55.95361 | -3.35547 | 111 ft | 8 kts | 269° |
| 2026-05-06 10:43 | 55.95347 | -3.35651 | 108 ft | 10 kts | 240° |
| 2026-05-06 10:44 | 55.95276 | -3.35860 | 106 ft | 9 kts | 239° |
| 2026-05-06 10:44 | 55.95243 | -3.35961 | 106 ft | 10 kts | 239° |
| 2026-05-06 10:44 | 55.95209 | -3.36060 | 107 ft | 8 kts | 239° |
| 2026-05-06 10:44 | 55.95182 | -3.36137 | 108 ft | 7 kts | 237° |
| 2026-05-06 10:45 | 55.95161 | -3.36197 | 109 ft | 5 kts | 239° |
| 2026-05-06 10:45 | 55.95139 | -3.36265 | 109 ft | 12 kts | 239° |
| 2026-05-06 10:45 | 55.95095 | -3.36383 | 111 ft | 10 kts | 217° |
| 2026-05-06 10:45 | 55.95034 | -3.36391 | 111 ft | 9 kts | 181° |
| 2026-05-06 10:46 | 55.94993 | -3.36463 | 110 ft | 8 kts | 239° |
| 2026-05-06 10:46 | 55.94963 | -3.36552 | 109 ft | 8 kts | 238° |
| 2026-05-06 10:46 | 55.94937 | -3.36628 | 110 ft | 6 kts | 238° |
| 2026-05-06 10:46 | 55.94906 | -3.36658 | 110 ft | 6 kts | 158° |
| 2026-05-06 10:47 | 55.94875 | -3.36629 | 109 ft | 3 kts | 144° |
| 2026-05-06 10:47 | 55.94860 | -3.36610 | 108 ft | 0 kts | 143° |
| 2026-05-06 10:47 | 55.94859 | -3.36609 | 108 ft | 0 kts | 144° |